Time;durP1;ratioP1;P1;durP2;ratioP2;P2;SDS_P1;SDS_P2;PMS_P1;PMS_P2;Temp;Humidity;BMP_temperature;BMP_pressure;BME280_temperature;BME280_humidity;BME280_pressure;Samples;Min_cycle;Max_cycle;Signal;HPM_P1;HPM_P2
2022/03/25 00:08:54;;;;;;;217.40;85.50;;;;;;;2.25;52.53;99623.25;432545;1271;98053;-42
2022/03/25 00:19:01;;;;;;;217.10;86.50;;;;;;;2.17;52.95;99619.30;432617;1271;112397;-41
2022/03/25 00:29:08;;;;;;;205.20;80.50;;;;;;;2.07;52.75;99618.21;432533;1271;108887;-41
2022/03/25 00:39:15;;;;;;;186.30;74.80;;;;;;;1.94;53.13;99617.98;432437;1271;98071;-42
2022/03/25 00:49:22;;;;;;;184.80;73.60;;;;;;;1.90;53.59;99609.99;432784;1271;111668;-42
2022/03/25 01:09:36;;;;;;;172.60;71.30;;;;;;;1.81;54.20;99602.80;432588;1271;99246;-43
2022/03/25 01:19:43;;;;;;;169.30;72.60;;;;;;;1.73;54.45;99603.00;432363;1271;112374;-44
2022/03/25 01:29:51;;;;;;;169.30;69.20;;;;;;;1.67;54.58;99600.38;432567;1271;110273;-39
2022/03/25 01:39:58;;;;;;;144.40;64.10;;;;;;;1.51;54.63;99591.42;432513;1271;99369;-42
2022/03/25 01:50:05;;;;;;;127.30;52.80;;;;;;;1.45;54.73;99590.69;432699;1271;112551;-42
2022/03/25 02:00:10;;;;;;;127.50;54.70;;;;;;;1.36;55.05;99590.56;432802;1271;108804;-41
2022/03/25 02:10:18;;;;;;;143.50;59.10;;;;;;;1.32;55.24;99593.05;432536;1271;99261;-42
2022/03/25 02:20:23;;;;;;;131.70;58.20;;;;;;;1.21;55.48;99597.07;432555;1271;112618;-44
2022/03/25 02:40:38;;;;;;;137.80;60.10;;;;;;;1.06;55.94;99596.02;433386;1261;99366;-40
2022/03/25 03:00:52;;;;;;;160.90;71.50;;;;;;;0.93;56.44;99605.41;432505;1270;108816;-42
2022/03/25 03:11:00;;;;;;;123.90;57.60;;;;;;;0.94;56.40;99603.94;432367;1269;99282;-42
2022/03/25 03:31:14;;;;;;;102.50;47.00;;;;;;;1.03;56.63;99599.92;432396;1270;108576;-43
2022/03/25 03:51:28;;;;;;;118.30;54.00;;;;;;;0.84;57.16;99602.97;432513;1270;108855;-41
2022/03/25 04:01:36;;;;;;;120.90;55.90;;;;;;;0.70;57.36;99597.19;432694;1268;98007;-41
2022/03/25 04:11:43;;;;;;;110.70;53.80;;;;;;;0.54;57.75;99597.06;432644;1270;112496;-41
2022/03/25 04:21:50;;;;;;;104.70;51.50;;;;;;;0.47;57.82;99599.48;432357;1270;108695;-40
2022/03/25 04:31:55;;;;;;;111.90;47.10;;;;;;;0.40;57.91;99598.21;432557;1268;99269;-41
2022/03/25 04:42:03;;;;;;;118.30;52.40;;;;;;;0.34;58.13;99600.04;432338;1269;112548;-40
2022/03/25 04:52:10;;;;;;;134.80;59.50;;;;;;;0.32;58.35;99603.80;432625;1270;108925;-41
2022/03/25 05:02:17;;;;;;;136.20;64.90;;;;;;;0.39;58.56;99606.52;432779;1270;99254;-40
2022/03/25 05:22:32;;;;;;;136.10;64.70;;;;;;;0.83;58.76;99616.79;432589;1270;109062;-41
2022/03/25 05:52:52;;;;;;;294.20;133.50;;;;;;;4.95;57.91;99633.04;432543;1270;109101;-42
2022/03/25 06:03:00;;;;;;;208.50;98.70;;;;;;;6.23;56.94;99639.30;432336;1270;99257;-41
2022/03/25 06:13:05;;;;;;;152.00;77.90;;;;;;;7.36;55.77;99635.58;432513;1270;107557;-44
2022/03/25 06:23:13;;;;;;;142.50;70.10;;;;;;;8.49;55.03;99642.45;432549;1270;98082;-43
2022/03/25 06:33:20;;;;;;;129.30;62.20;;;;;;;10.03;53.62;99648.02;432488;1270;112009;-41
2022/03/25 06:43:27;;;;;;;85.00;41.50;;;;;;;11.23;52.11;99640.77;432473;1269;108748;-41
2022/03/25 06:53:35;;;;;;;83.10;27.00;;;;;;;12.44;50.23;99643.88;432572;1270;99279;-43
2022/03/25 07:03:42;;;;;;;38.90;18.20;;;;;;;13.10;47.73;99641.10;432611;1270;108957;-41
2022/03/25 07:13:49;;;;;;;33.80;17.70;;;;;;;13.48;45.19;99645.55;432498;1269;99295;-42
2022/03/25 07:23:56;;;;;;;24.60;15.60;;;;;;;13.77;43.24;99654.70;432375;1270;112331;-42
2022/03/25 07:34:04;;;;;;;31.10;14.90;;;;;;;13.87;41.86;99661.68;432467;1270;109056;-41
2022/03/25 07:44:11;;;;;;;42.90;17.50;;;;;;;13.97;41.08;99672.51;432520;1270;100006;-41
2022/03/25 07:54:18;;;;;;;37.50;20.00;;;;;;;13.75;40.74;99675.85;432693;1270;108880;-41
2022/03/25 08:04:25;;;;;;;40.60;19.70;;;;;;;13.75;40.24;99681.65;432590;1270;99484;-40
2022/03/25 08:14:34;;;;;;;29.00;14.50;;;;;;;13.90;39.33;99684.30;432446;1270;112501;-40
2022/03/25 08:35:07;;;;;;;47.00;21.10;;;;;;;14.29;37.14;99680.46;432546;1270;98864;-42
2022/03/25 08:55:19;;;;;;;27.80;17.20;;;;;;;14.79;36.12;99682.48;432458;1271;99398;-40
2022/03/25 09:05:27;;;;;;;29.00;16.70;;;;;;;15.04;36.02;99682.40;432020;1270;975544;-45
2022/03/25 09:15:33;;;;;;;28.60;15.40;;;;;;;15.27;35.23;99679.98;432473;1270;108839;-41
2022/03/25 09:25:40;;;;;;;24.40;14.30;;;;;;;15.43;34.79;99682.73;432650;1270;99273;-41
2022/03/25 09:35:46;;;;;;;35.90;17.50;;;;;;;15.60;34.19;99681.20;432405;1270;113923;-42
2022/03/25 09:45:53;;;;;;;78.40;18.20;;;;;;;15.76;34.06;99675.39;432606;1270;108808;-39
2022/03/25 09:56:01;;;;;;;23.10;11.40;;;;;;;15.86;33.18;99672.17;432629;1270;98029;-41
2022/03/25 10:16:28;;;;;;;29.80;14.30;;;;;;;15.71;32.17;99666.14;432461;1270;99354;-40
2022/03/25 10:26:39;;;;;;;32.50;14.70;;;;;;;15.64;32.63;99663.80;432586;1270;112479;-43
2022/03/25 10:57:47;;;;;;;20.30;13.50;;;;;;;15.86;31.93;99655.86;432654;1270;108852;-42
2022/03/25 11:08:00;;;;;;;19.90;10.70;;;;;;;15.78;32.11;99646.00;432423;1270;99253;-43
2022/03/25 11:18:07;;;;;;;30.00;12.90;;;;;;;15.66;32.52;99636.44;432599;1271;112401;-44
2022/03/25 11:28:17;;;;;;;22.80;13.10;;;;;;;15.78;32.13;99629.20;432484;1270;108750;-40
2022/03/25 11:38:24;;;;;;;29.10;12.20;;;;;;;15.85;32.24;99620.35;432504;1271;99308;-41
2022/03/25 11:48:40;;;;;;;18.20;10.70;;;;;;;15.97;31.79;99614.33;432496;1271;108930;-41
2022/03/25 11:58:57;;;;;;;65.70;15.60;;;;;;;16.10;31.59;99604.67;432548;1271;99198;-41
2022/03/25 12:09:08;;;;;;;26.90;13.30;;;;;;;15.86;31.82;99596.98;432629;1271;112481;-44
2022/03/25 12:19:46;;;;;;;24.30;12.10;;;;;;;15.87;31.72;99589.36;432853;1271;108787;-43
2022/03/25 12:29:55;;;;;;;26.80;12.90;;;;;;;15.75;31.89;99582.53;432505;1271;99277;-42
2022/03/25 12:40:09;;;;;;;25.80;11.80;;;;;;;15.70;31.73;99573.86;432332;1270;109102;-41
2022/03/25 12:50:17;;;;;;;25.10;11.50;;;;;;;15.62;31.72;99567.90;432648;1271;99243;-41
2022/03/25 13:00:25;;;;;;;19.20;12.00;;;;;;;15.57;32.03;99561.55;432598;1271;112501;-41
2022/03/25 13:10:33;;;;;;;32.10;12.30;;;;;;;15.51;31.70;99551.80;432617;1271;108888;-41
2022/03/25 13:20:40;;;;;;;22.90;13.20;;;;;;;15.45;31.87;99547.63;432684;1270;98038;-40
2022/03/25 13:40:56;;;;;;;24.40;11.60;;;;;;;15.32;31.94;99542.27;432454;1270;100029;-43
2022/03/25 13:51:03;;;;;;;21.30;9.80;;;;;;;15.24;31.88;99537.91;432589;1270;112335;-43
2022/03/25 14:01:10;;;;;;;20.60;9.80;;;;;;;15.27;32.11;99533.17;432513;1270;109095;-41
2022/03/25 14:11:17;;;;;;;19.80;11.10;;;;;;;15.28;32.15;99524.62;432675;1270;99299;-41
2022/03/25 14:21:29;;;;;;;21.60;13.40;;;;;;;15.27;32.24;99516.21;432406;1271;109766;-40
2022/03/25 14:31:35;;;;;;;26.00;13.80;;;;;;;15.14;32.09;99514.23;432599;1271;99260;-42
2022/03/25 14:41:44;;;;;;;48.80;16.30;;;;;;;15.01;32.04;99505.56;432681;1270;112392;-42
2022/03/25 14:51:52;;;;;;;27.00;16.00;;;;;;;14.94;32.20;99504.26;432782;1270;108886;-42
2022/03/25 15:01:58;;;;;;;33.40;16.60;;;;;;;14.94;32.19;99503.56;432522;1270;99910;-40
2022/03/25 15:12:03;;;;;;;35.10;18.10;;;;;;;14.74;31.63;99501.73;432531;1270;108815;-41
2022/03/25 15:22:10;;;;;;;32.10;18.70;;;;;;;14.54;31.34;99501.40;432623;1268;99350;-42
2022/03/25 15:42:41;;;;;;;28.20;15.60;;;;;;;14.28;31.73;99489.85;432494;1270;108752;-42
2022/03/25 15:52:48;;;;;;;31.90;15.10;;;;;;;14.12;31.65;99482.15;432398;1270;98828;-41
2022/03/25 16:02:56;;;;;;;31.30;15.00;;;;;;;13.95;31.76;99479.42;432587;1270;108809;-41
2022/03/25 16:13:05;;;;;;;28.90;14.10;;;;;;;13.75;31.75;99482.87;432489;1270;99249;-40
2022/03/25 16:23:12;;;;;;;53.20;17.30;;;;;;;13.50;32.17;99486.08;432864;1270;113209;-41
2022/03/25 16:43:25;;;;;;;33.90;17.80;;;;;;;12.89;32.97;99489.34;432773;1270;99260;-43
2022/03/25 16:53:33;;;;;;;39.30;19.90;;;;;;;12.54;33.27;99496.31;432517;1270;108693;-41
2022/03/25 17:13:47;;;;;;;34.70;18.40;;;;;;;11.74;33.86;99509.19;432611;1271;110869;-40
2022/03/25 17:23:55;;;;;;;57.90;22.70;;;;;;;11.34;34.29;99519.19;432412;1271;108704;-45
2022/03/25 17:34:02;;;;;;;117.20;29.70;;;;;;;10.92;34.85;99530.63;432500;1271;99283;-42
2022/03/25 17:44:08;;;;;;;68.10;32.20;;;;;;;10.42;35.29;99539.92;432499;1271;109270;-42
2022/03/25 17:54:15;;;;;;;129.10;46.50;;;;;;;9.94;35.76;99549.69;432512;1270;99270;-44
2022/03/25 18:04:21;;;;;;;120.80;48.40;;;;;;;9.51;36.45;99547.64;432592;1271;112416;-43
2022/03/25 18:24:33;;;;;;;71.30;33.20;;;;;;;8.73;37.63;99545.22;432523;1270;98108;-41
2022/03/25 18:34:40;;;;;;;68.80;33.30;;;;;;;8.42;37.94;99550.79;432674;1269;112055;-41
2022/03/25 18:44:47;;;;;;;82.60;36.20;;;;;;;8.07;38.50;99563.16;432651;1270;107422;-45
2022/03/25 18:54:58;;;;;;;123.30;51.60;;;;;;;7.74;39.02;99569.55;432739;1270;98054;-45
2022/03/25 19:05:04;;;;;;;125.30;56.10;;;;;;;7.47;39.51;99582.07;432786;1270;111576;-42
2022/03/25 19:15:12;;;;;;;137.10;59.10;;;;;;;7.23;39.94;99588.94;432499;1270;108908;-40
2022/03/25 19:25:20;;;;;;;118.10;52.40;;;;;;;7.02;40.16;99593.11;432461;1270;99231;-42
2022/03/25 19:45:34;;;;;;;104.50;42.20;;;;;;;6.62;40.98;99607.16;432389;1270;108956;-42
2022/03/25 20:05:48;;;;;;;101.80;41.20;;;;;;;6.24;41.70;99613.70;432784;1270;112383;-42
2022/03/25 20:15:55;;;;;;;85.80;37.80;;;;;;;6.06;42.05;99615.95;432480;1270;108870;-41
2022/03/25 20:26:02;;;;;;;81.00;39.90;;;;;;;5.95;42.36;99618.07;432548;1267;98432;-42
2022/03/25 20:36:11;;;;;;;89.60;38.90;;;;;;;5.84;42.70;99613.69;432702;1270;108560;-42
2022/03/25 20:46:19;;;;;;;75.00;36.90;;;;;;;5.75;43.04;99620.13;432539;1270;99387;-41
2022/03/25 20:56:26;;;;;;;84.80;39.50;;;;;;;5.65;43.29;99621.13;432591;1270;112387;-43
2022/03/25 21:06:31;;;;;;;87.70;39.70;;;;;;;5.57;43.70;99622.20;428435;1270;5394647;-41
2022/03/25 21:16:35;;;;;;;92.40;37.00;;;;;;;5.44;44.12;99625.30;432462;1270;98000;-42
2022/03/25 21:26:43;;;;;;;73.20;33.20;;;;;;;5.29;44.62;99627.34;432443;1270;108818;-41
2022/03/25 21:36:49;;;;;;;80.50;34.60;;;;;;;5.19;45.18;99630.13;432645;1270;98043;-42
2022/03/25 21:57:03;;;;;;;72.30;33.10;;;;;;;4.99;45.89;99631.36;432454;1270;108961;-41
2022/03/25 22:07:09;;;;;;;74.20;33.40;;;;;;;5.02;46.29;99623.36;432515;1270;100485;-42
2022/03/25 22:17:16;;;;;;;74.30;33.20;;;;;;;5.11;46.56;99620.23;432658;1270;112576;-43
2022/03/25 22:27:22;;;;;;;75.80;34.70;;;;;;;5.17;46.80;99616.36;432535;1270;107745;-41
2022/03/25 22:37:29;;;;;;;69.40;33.90;;;;;;;5.26;46.89;99612.44;432551;1270;99248;-43
2022/03/25 22:47:37;;;;;;;65.60;31.80;;;;;;;5.35;47.21;99602.71;432570;1268;112446;-41
2022/03/25 22:57:44;;;;;;;76.70;34.80;;;;;;;5.37;47.46;99599.80;432550;1270;108836;-42
2022/03/25 23:07:51;;;;;;;82.00;37.40;;;;;;;5.28;47.72;99595.77;432759;1270;98009;-41
2022/03/25 23:17:57;;;;;;;76.20;36.50;;;;;;;5.16;48.08;99598.67;432692;1270;113600;-42
2022/03/25 23:28:04;;;;;;;81.30;34.60;;;;;;;5.08;48.21;99598.52;432537;1270;108802;-40
2022/03/25 23:38:13;;;;;;;65.50;32.40;;;;;;;5.03;48.45;99594.81;432668;1270;98875;-41
2022/03/25 23:48:21;;;;;;;67.30;31.10;;;;;;;5.04;48.86;99588.15;432782;1270;112416;-41
2022/03/25 23:58:28;;;;;;;60.40;28.90;;;;;;;5.15;48.96;99584.52;432525;1270;108900;-41
